sensor_id;sensor_type;location;lat;lon;timestamp;P1;durP1;ratioP1;P2;durP2;ratioP2
35128;SDS011;21301;43.626;10.580;2023-04-03T00:00:43;7.47;;;3.40;;
35128;SDS011;21301;43.626;10.580;2023-04-03T00:03:08;5.97;;;2.88;;
35128;SDS011;21301;43.626;10.580;2023-04-03T00:05:34;7.05;;;3.70;;
35128;SDS011;21301;43.626;10.580;2023-04-03T00:08:00;8.80;;;3.78;;
35128;SDS011;21301;43.626;10.580;2023-04-03T00:10:27;7.57;;;4.38;;
35128;SDS011;21301;43.626;10.580;2023-04-03T00:12:53;9.35;;;4.28;;
35128;SDS011;21301;43.626;10.580;2023-04-03T00:15:19;8.82;;;3.17;;
35128;SDS011;21301;43.626;10.580;2023-04-03T00:17:45;6.50;;;3.40;;
35128;SDS011;21301;43.626;10.580;2023-04-03T00:20:11;5.88;;;3.28;;
35128;SDS011;21301;43.626;10.580;2023-04-03T00:22:37;7.47;;;3.40;;
35128;SDS011;21301;43.626;10.580;2023-04-03T00:25:03;6.97;;;2.78;;
35128;SDS011;21301;43.626;10.580;2023-04-03T00:27:29;11.52;;;3.72;;
35128;SDS011;21301;43.626;10.580;2023-04-03T00:29:55;6.55;;;2.85;;
35128;SDS011;21301;43.626;10.580;2023-04-03T00:32:21;7.15;;;3.88;;
35128;SDS011;21301;43.626;10.580;2023-04-03T00:34:47;6.05;;;2.88;;
35128;SDS011;21301;43.626;10.580;2023-04-03T00:37:13;5.72;;;2.97;;
35128;SDS011;21301;43.626;10.580;2023-04-03T00:39:38;5.47;;;3.25;;
35128;SDS011;21301;43.626;10.580;2023-04-03T00:42:04;6.85;;;3.70;;
35128;SDS011;21301;43.626;10.580;2023-04-03T00:47:00;6.13;;;3.85;;
35128;SDS011;21301;43.626;10.580;2023-04-03T00:49:27;7.60;;;3.20;;
35128;SDS011;21301;43.626;10.580;2023-04-03T00:51:53;6.35;;;2.65;;
35128;SDS011;21301;43.626;10.580;2023-04-03T00:54:20;4.97;;;2.75;;
35128;SDS011;21301;43.626;10.580;2023-04-03T00:56:47;7.22;;;2.78;;
35128;SDS011;21301;43.626;10.580;2023-04-03T00:59:16;7.18;;;2.70;;
35128;SDS011;21301;43.626;10.580;2023-04-03T01:01:48;12.55;;;3.17;;
35128;SDS011;21301;43.626;10.580;2023-04-03T01:07:08;7.70;;;3.28;;
35128;SDS011;21301;43.626;10.580;2023-04-03T01:09:37;6.78;;;3.20;;
35128;SDS011;21301;43.626;10.580;2023-04-03T01:12:24;6.55;;;2.50;;
35128;SDS011;21301;43.626;10.580;2023-04-03T01:14:55;5.80;;;3.25;;
35128;SDS011;21301;43.626;10.580;2023-04-03T01:17:33;5.75;;;3.20;;
35128;SDS011;21301;43.626;10.580;2023-04-03T01:25:37;8.18;;;3.58;;
35128;SDS011;21301;43.626;10.580;2023-04-03T01:28:14;5.82;;;3.10;;
35128;SDS011;21301;43.626;10.580;2023-04-03T01:30:47;6.32;;;2.25;;
35128;SDS011;21301;43.626;10.580;2023-04-03T01:33:26;5.43;;;2.80;;
35128;SDS011;21301;43.626;10.580;2023-04-03T01:35:52;6.78;;;2.42;;
35128;SDS011;21301;43.626;10.580;2023-04-03T01:38:18;7.35;;;2.55;;
35128;SDS011;21301;43.626;10.580;2023-04-03T01:40:44;7.00;;;2.95;;
35128;SDS011;21301;43.626;10.580;2023-04-03T01:43:10;7.38;;;3.60;;
35128;SDS011;21301;43.626;10.580;2023-04-03T01:45:37;5.95;;;3.03;;
35128;SDS011;21301;43.626;10.580;2023-04-03T01:48:02;5.75;;;2.60;;
35128;SDS011;21301;43.626;10.580;2023-04-03T01:50:29;4.85;;;2.50;;
35128;SDS011;21301;43.626;10.580;2023-04-03T01:52:55;6.10;;;2.33;;
35128;SDS011;21301;43.626;10.580;2023-04-03T01:55:21;4.93;;;2.42;;
35128;SDS011;21301;43.626;10.580;2023-04-03T01:57:48;6.70;;;3.42;;
35128;SDS011;21301;43.626;10.580;2023-04-03T02:00:22;4.43;;;2.28;;
35128;SDS011;21301;43.626;10.580;2023-04-03T02:02:49;5.03;;;2.50;;
35128;SDS011;21301;43.626;10.580;2023-04-03T02:05:15;7.30;;;2.80;;
35128;SDS011;21301;43.626;10.580;2023-04-03T02:07:41;6.60;;;2.47;;
35128;SDS011;21301;43.626;10.580;2023-04-03T02:10:07;7.53;;;2.92;;
35128;SDS011;21301;43.626;10.580;2023-04-03T02:12:33;5.45;;;2.20;;
35128;SDS011;21301;43.626;10.580;2023-04-03T02:14:59;6.13;;;2.75;;
35128;SDS011;21301;43.626;10.580;2023-04-03T02:17:26;5.45;;;2.38;;
35128;SDS011;21301;43.626;10.580;2023-04-03T02:19:53;5.60;;;2.30;;
35128;SDS011;21301;43.626;10.580;2023-04-03T02:22:19;6.10;;;2.40;;
35128;SDS011;21301;43.626;10.580;2023-04-03T02:24:45;5.35;;;2.42;;
35128;SDS011;21301;43.626;10.580;2023-04-03T02:27:11;4.82;;;2.45;;
35128;SDS011;21301;43.626;10.580;2023-04-03T02:29:37;7.78;;;2.45;;
35128;SDS011;21301;43.626;10.580;2023-04-03T02:32:04;6.10;;;2.63;;
35128;SDS011;21301;43.626;10.580;2023-04-03T02:34:31;6.40;;;2.40;;
35128;SDS011;21301;43.626;10.580;2023-04-03T02:36:59;7.35;;;2.65;;
35128;SDS011;21301;43.626;10.580;2023-04-03T02:39:25;5.40;;;2.28;;
35128;SDS011;21301;43.626;10.580;2023-04-03T02:41:52;3.92;;;1.92;;
35128;SDS011;21301;43.626;10.580;2023-04-03T02:44:22;6.68;;;3.17;;
35128;SDS011;21301;43.626;10.580;2023-04-03T02:46:49;7.25;;;2.45;;
35128;SDS011;21301;43.626;10.580;2023-04-03T02:49:16;8.70;;;2.53;;
35128;SDS011;21301;43.626;10.580;2023-04-03T02:51:41;4.82;;;2.33;;
35128;SDS011;21301;43.626;10.580;2023-04-03T02:54:08;5.72;;;2.58;;
35128;SDS011;21301;43.626;10.580;2023-04-03T02:56:37;19.80;;;2.38;;
35128;SDS011;21301;43.626;10.580;2023-04-03T02:59:03;6.32;;;2.65;;
35128;SDS011;21301;43.626;10.580;2023-04-03T03:01:29;3.85;;;2.08;;
35128;SDS011;21301;43.626;10.580;2023-04-03T03:03:58;6.53;;;2.38;;
35128;SDS011;21301;43.626;10.580;2023-04-03T03:06:25;6.13;;;2.40;;
35128;SDS011;21301;43.626;10.580;2023-04-03T03:08:51;4.45;;;2.30;;
35128;SDS011;21301;43.626;10.580;2023-04-03T03:11:17;4.68;;;2.15;;
35128;SDS011;21301;43.626;10.580;2023-04-03T03:13:43;5.20;;;2.25;;
35128;SDS011;21301;43.626;10.580;2023-04-03T03:16:09;4.60;;;2.33;;
35128;SDS011;21301;43.626;10.580;2023-04-03T03:18:35;4.00;;;2.28;;
35128;SDS011;21301;43.626;10.580;2023-04-03T03:21:02;4.10;;;2.03;;
35128;SDS011;21301;43.626;10.580;2023-04-03T03:23:29;4.03;;;1.73;;
35128;SDS011;21301;43.626;10.580;2023-04-03T03:26:04;4.32;;;1.70;;
35128;SDS011;21301;43.626;10.580;2023-04-03T03:28:33;5.25;;;1.85;;
35128;SDS011;21301;43.626;10.580;2023-04-03T03:31:00;7.00;;;2.45;;
35128;SDS011;21301;43.626;10.580;2023-04-03T03:33:26;3.63;;;1.63;;
35128;SDS011;21301;43.626;10.580;2023-04-03T03:35:52;6.43;;;1.90;;
35128;SDS011;21301;43.626;10.580;2023-04-03T03:38:19;4.85;;;2.00;;
35128;SDS011;21301;43.626;10.580;2023-04-03T03:40:49;6.53;;;2.13;;
35128;SDS011;21301;43.626;10.580;2023-04-03T03:43:17;6.07;;;2.67;;
35128;SDS011;21301;43.626;10.580;2023-04-03T03:45:46;4.05;;;1.95;;
35128;SDS011;21301;43.626;10.580;2023-04-03T03:48:16;5.70;;;2.42;;
35128;SDS011;21301;43.626;10.580;2023-04-03T03:50:42;4.47;;;2.20;;
35128;SDS011;21301;43.626;10.580;2023-04-03T03:53:08;3.53;;;1.65;;
35128;SDS011;21301;43.626;10.580;2023-04-03T03:55:35;5.65;;;2.35;;
35128;SDS011;21301;43.626;10.580;2023-04-03T03:58:00;7.50;;;2.70;;
35128;SDS011;21301;43.626;10.580;2023-04-03T04:00:29;9.13;;;2.80;;
35128;SDS011;21301;43.626;10.580;2023-04-03T04:02:56;5.00;;;1.80;;
35128;SDS011;21301;43.626;10.580;2023-04-03T04:05:23;5.10;;;2.08;;
35128;SDS011;21301;43.626;10.580;2023-04-03T04:07:51;7.72;;;2.08;;
35128;SDS011;21301;43.626;10.580;2023-04-03T04:10:17;6.25;;;2.17;;
35128;SDS011;21301;43.626;10.580;2023-04-03T04:12:44;6.97;;;2.20;;
35128;SDS011;21301;43.626;10.580;2023-04-03T04:15:10;3.63;;;1.90;;
35128;SDS011;21301;43.626;10.580;2023-04-03T04:17:37;4.45;;;2.30;;
35128;SDS011;21301;43.626;10.580;2023-04-03T04:20:05;5.15;;;2.60;;
35128;SDS011;21301;43.626;10.580;2023-04-03T04:22:32;9.00;;;2.25;;
35128;SDS011;21301;43.626;10.580;2023-04-03T04:24:58;4.45;;;2.20;;
35128;SDS011;21301;43.626;10.580;2023-04-03T04:27:24;5.85;;;2.22;;
35128;SDS011;21301;43.626;10.580;2023-04-03T04:29:50;6.05;;;3.17;;
35128;SDS011;21301;43.626;10.580;2023-04-03T04:32:17;5.18;;;2.42;;
35128;SDS011;21301;43.626;10.580;2023-04-03T04:34:44;7.47;;;3.05;;
35128;SDS011;21301;43.626;10.580;2023-04-03T04:37:10;9.65;;;2.88;;
35128;SDS011;21301;43.626;10.580;2023-04-03T04:39:36;7.18;;;2.50;;
35128;SDS011;21301;43.626;10.580;2023-04-03T04:42:02;9.43;;;2.67;;
35128;SDS011;21301;43.626;10.580;2023-04-03T04:44:30;6.78;;;3.60;;
35128;SDS011;21301;43.626;10.580;2023-04-03T04:46:56;5.70;;;2.45;;
35128;SDS011;21301;43.626;10.580;2023-04-03T04:49:22;6.55;;;2.90;;
35128;SDS011;21301;43.626;10.580;2023-04-03T04:51:48;7.68;;;2.95;;
35128;SDS011;21301;43.626;10.580;2023-04-03T04:54:16;5.25;;;2.38;;
35128;SDS011;21301;43.626;10.580;2023-04-03T04:56:44;6.30;;;2.50;;
35128;SDS011;21301;43.626;10.580;2023-04-03T04:59:10;5.25;;;2.15;;
35128;SDS011;21301;43.626;10.580;2023-04-03T05:01:36;8.27;;;3.28;;
35128;SDS011;21301;43.626;10.580;2023-04-03T05:04:07;6.53;;;2.35;;
35128;SDS011;21301;43.626;10.580;2023-04-03T05:06:34;4.35;;;2.08;;
35128;SDS011;21301;43.626;10.580;2023-04-03T05:09:03;4.82;;;2.58;;
35128;SDS011;21301;43.626;10.580;2023-04-03T05:11:31;5.47;;;2.40;;
35128;SDS011;21301;43.626;10.580;2023-04-03T05:13:57;5.60;;;2.40;;
35128;SDS011;21301;43.626;10.580;2023-04-03T05:16:24;5.60;;;2.50;;
35128;SDS011;21301;43.626;10.580;2023-04-03T05:18:51;6.13;;;2.45;;
35128;SDS011;21301;43.626;10.580;2023-04-03T05:21:20;6.10;;;2.42;;
35128;SDS011;21301;43.626;10.580;2023-04-03T05:23:49;5.78;;;2.25;;
35128;SDS011;21301;43.626;10.580;2023-04-03T05:26:15;5.43;;;2.63;;
35128;SDS011;21301;43.626;10.580;2023-04-03T05:28:43;5.00;;;2.55;;
35128;SDS011;21301;43.626;10.580;2023-04-03T05:31:10;6.65;;;3.05;;
35128;SDS011;21301;43.626;10.580;2023-04-03T05:33:37;11.77;;;3.00;;
35128;SDS011;21301;43.626;10.580;2023-04-03T05:36:05;8.45;;;4.45;;
35128;SDS011;21301;43.626;10.580;2023-04-03T05:38:35;9.02;;;4.40;;
35128;SDS011;21301;43.626;10.580;2023-04-03T05:41:01;6.97;;;3.28;;
35128;SDS011;21301;43.626;10.580;2023-04-03T05:43:27;6.75;;;3.50;;
35128;SDS011;21301;43.626;10.580;2023-04-03T05:45:54;6.97;;;2.97;;
35128;SDS011;21301;43.626;10.580;2023-04-03T05:48:22;6.88;;;2.63;;
35128;SDS011;21301;43.626;10.580;2023-04-03T05:50:48;5.30;;;2.67;;
35128;SDS011;21301;43.626;10.580;2023-04-03T05:53:25;7.15;;;2.80;;
35128;SDS011;21301;43.626;10.580;2023-04-03T05:55:56;9.40;;;2.97;;
35128;SDS011;21301;43.626;10.580;2023-04-03T05:58:23;7.50;;;2.83;;
35128;SDS011;21301;43.626;10.580;2023-04-03T06:00:51;7.47;;;2.97;;
35128;SDS011;21301;43.626;10.580;2023-04-03T06:03:17;26.77;;;13.05;;
35128;SDS011;21301;43.626;10.580;2023-04-03T06:05:43;7.72;;;3.35;;
35128;SDS011;21301;43.626;10.580;2023-04-03T06:08:10;5.15;;;2.78;;
35128;SDS011;21301;43.626;10.580;2023-04-03T06:10:36;6.82;;;2.40;;
35128;SDS011;21301;43.626;10.580;2023-04-03T06:13:02;8.43;;;2.83;;
35128;SDS011;21301;43.626;10.580;2023-04-03T06:15:28;9.50;;;2.95;;
35128;SDS011;21301;43.626;10.580;2023-04-03T06:17:54;7.43;;;5.00;;
35128;SDS011;21301;43.626;10.580;2023-04-03T06:20:20;6.97;;;3.28;;
35128;SDS011;21301;43.626;10.580;2023-04-03T06:22:47;11.27;;;3.45;;
35128;SDS011;21301;43.626;10.580;2023-04-03T06:25:13;10.05;;;3.22;;
35128;SDS011;21301;43.626;10.580;2023-04-03T06:27:39;11.25;;;3.20;;
35128;SDS011;21301;43.626;10.580;2023-04-03T06:30:06;8.45;;;3.45;;
35128;SDS011;21301;43.626;10.580;2023-04-03T06:32:32;6.07;;;3.53;;
35128;SDS011;21301;43.626;10.580;2023-04-03T06:34:58;9.07;;;3.35;;
35128;SDS011;21301;43.626;10.580;2023-04-03T06:37:24;9.65;;;3.45;;
35128;SDS011;21301;43.626;10.580;2023-04-03T06:39:54;10.18;;;3.85;;
35128;SDS011;21301;43.626;10.580;2023-04-03T06:42:20;7.28;;;3.53;;
35128;SDS011;21301;43.626;10.580;2023-04-03T06:47:19;12.30;;;4.20;;
35128;SDS011;21301;43.626;10.580;2023-04-03T06:49:45;8.93;;;4.32;;
35128;SDS011;21301;43.626;10.580;2023-04-03T06:52:11;15.93;;;5.20;;
35128;SDS011;21301;43.626;10.580;2023-04-03T06:54:38;12.02;;;4.70;;
35128;SDS011;21301;43.626;10.580;2023-04-03T06:57:04;9.95;;;4.72;;
35128;SDS011;21301;43.626;10.580;2023-04-03T06:59:30;24.27;;;13.25;;
35128;SDS011;21301;43.626;10.580;2023-04-03T07:01:56;54.38;;;26.17;;
35128;SDS011;21301;43.626;10.580;2023-04-03T07:04:23;23.92;;;11.18;;
35128;SDS011;21301;43.626;10.580;2023-04-03T07:06:49;18.92;;;9.52;;
35128;SDS011;21301;43.626;10.580;2023-04-03T07:09:16;18.20;;;5.28;;
35128;SDS011;21301;43.626;10.580;2023-04-03T07:11:41;9.75;;;4.97;;
35128;SDS011;21301;43.626;10.580;2023-04-03T07:14:07;9.48;;;4.30;;
35128;SDS011;21301;43.626;10.580;2023-04-03T07:16:34;15.50;;;5.28;;
35128;SDS011;21301;43.626;10.580;2023-04-03T07:19:00;12.20;;;5.57;;
35128;SDS011;21301;43.626;10.580;2023-04-03T07:21:27;28.27;;;13.57;;
35128;SDS011;21301;43.626;10.580;2023-04-03T07:23:53;13.57;;;6.32;;
35128;SDS011;21301;43.626;10.580;2023-04-03T07:26:19;10.95;;;5.47;;
35128;SDS011;21301;43.626;10.580;2023-04-03T07:28:48;12.77;;;6.57;;
35128;SDS011;21301;43.626;10.580;2023-04-03T07:31:15;12.18;;;6.05;;
35128;SDS011;21301;43.626;10.580;2023-04-03T07:33:43;9.10;;;3.40;;
35128;SDS011;21301;43.626;10.580;2023-04-03T07:36:11;5.63;;;1.90;;
35128;SDS011;21301;43.626;10.580;2023-04-03T07:38:40;3.83;;;1.45;;
35128;SDS011;21301;43.626;10.580;2023-04-03T07:41:06;3.85;;;1.58;;
35128;SDS011;21301;43.626;10.580;2023-04-03T07:43:36;4.50;;;1.50;;
35128;SDS011;21301;43.626;10.580;2023-04-03T07:46:02;6.00;;;1.40;;
35128;SDS011;21301;43.626;10.580;2023-04-03T07:48:30;4.10;;;1.50;;
35128;SDS011;21301;43.626;10.580;2023-04-03T07:50:59;3.75;;;1.17;;
35128;SDS011;21301;43.626;10.580;2023-04-03T07:53:26;3.70;;;1.45;;
35128;SDS011;21301;43.626;10.580;2023-04-03T07:55:51;2.33;;;1.10;;
35128;SDS011;21301;43.626;10.580;2023-04-03T07:58:20;3.70;;;1.45;;
35128;SDS011;21301;43.626;10.580;2023-04-03T08:00:46;3.97;;;1.30;;
35128;SDS011;21301;43.626;10.580;2023-04-03T08:03:13;3.78;;;1.17;;
35128;SDS011;21301;43.626;10.580;2023-04-03T08:05:41;1.80;;;0.80;;
35128;SDS011;21301;43.626;10.580;2023-04-03T08:08:10;3.00;;;1.02;;
35128;SDS011;21301;43.626;10.580;2023-04-03T08:10:37;3.75;;;1.13;;
35128;SDS011;21301;43.626;10.580;2023-04-03T08:13:03;4.13;;;1.05;;
35128;SDS011;21301;43.626;10.580;2023-04-03T08:15:30;2.58;;;1.00;;
35128;SDS011;21301;43.626;10.580;2023-04-03T08:17:57;1.83;;;0.60;;
35128;SDS011;21301;43.626;10.580;2023-04-03T08:20:23;1.75;;;0.75;;
35128;SDS011;21301;43.626;10.580;2023-04-03T08:22:50;2.83;;;1.00;;
35128;SDS011;21301;43.626;10.580;2023-04-03T08:25:15;2.17;;;0.73;;
35128;SDS011;21301;43.626;10.580;2023-04-03T08:27:42;6.15;;;1.17;;
35128;SDS011;21301;43.626;10.580;2023-04-03T08:30:08;2.10;;;0.65;;
35128;SDS011;21301;43.626;10.580;2023-04-03T08:32:34;3.10;;;0.93;;
35128;SDS011;21301;43.626;10.580;2023-04-03T08:35:01;2.50;;;1.00;;
35128;SDS011;21301;43.626;10.580;2023-04-03T08:37:46;3.17;;;0.85;;
35128;SDS011;21301;43.626;10.580;2023-04-03T08:40:15;2.15;;;0.80;;
35128;SDS011;21301;43.626;10.580;2023-04-03T08:48:19;2.13;;;0.70;;
35128;SDS011;21301;43.626;10.580;2023-04-03T08:50:55;2.97;;;0.90;;
35128;SDS011;21301;43.626;10.580;2023-04-03T08:53:28;3.58;;;0.80;;
35128;SDS011;21301;43.626;10.580;2023-04-03T08:55:58;1.60;;;0.63;;
35128;SDS011;21301;43.626;10.580;2023-04-03T08:58:30;3.20;;;1.17;;
35128;SDS011;21301;43.626;10.580;2023-04-03T09:04:15;1.52;;;0.70;;
35128;SDS011;21301;43.626;10.580;2023-04-03T09:06:49;2.60;;;1.00;;
35128;SDS011;21301;43.626;10.580;2023-04-03T09:22:28;1.88;;;0.60;;
35128;SDS011;21301;43.626;10.580;2023-04-03T09:25:00;2.97;;;0.85;;
35128;SDS011;21301;43.626;10.580;2023-04-03T09:27:30;1.77;;;0.95;;
35128;SDS011;21301;43.626;10.580;2023-04-03T09:29:56;1.90;;;0.70;;
35128;SDS011;21301;43.626;10.580;2023-04-03T09:39:02;1.20;;;0.60;;
35128;SDS011;21301;43.626;10.580;2023-04-03T09:41:30;2.78;;;0.98;;
35128;SDS011;21301;43.626;10.580;2023-04-03T09:43:57;3.97;;;1.17;;
35128;SDS011;21301;43.626;10.580;2023-04-03T09:46:32;2.65;;;0.90;;
35128;SDS011;21301;43.626;10.580;2023-04-03T09:49:03;1.80;;;0.60;;
35128;SDS011;21301;43.626;10.580;2023-04-03T09:51:30;2.35;;;1.00;;
35128;SDS011;21301;43.626;10.580;2023-04-03T09:53:57;2.58;;;1.05;;
35128;SDS011;21301;43.626;10.580;2023-04-03T09:56:27;3.05;;;0.80;;
35128;SDS011;21301;43.626;10.580;2023-04-03T10:01:31;1.52;;;0.50;;
35128;SDS011;21301;43.626;10.580;2023-04-03T10:04:14;2.20;;;0.80;;
35128;SDS011;21301;43.626;10.580;2023-04-03T10:06:42;2.25;;;0.88;;
35128;SDS011;21301;43.626;10.580;2023-04-03T10:09:26;5.30;;;1.45;;
35128;SDS011;21301;43.626;10.580;2023-04-03T10:14:22;2.78;;;0.88;;
35128;SDS011;21301;43.626;10.580;2023-04-03T10:16:50;2.63;;;0.70;;
35128;SDS011;21301;43.626;10.580;2023-04-03T10:28:00;2.35;;;0.90;;
35128;SDS011;21301;43.626;10.580;2023-04-03T10:39:02;3.60;;;1.20;;
35128;SDS011;21301;43.626;10.580;2023-04-03T10:41:56;2.75;;;1.08;;
35128;SDS011;21301;43.626;10.580;2023-04-03T10:58:45;5.03;;;1.17;;
35128;SDS011;21301;43.626;10.580;2023-04-03T11:01:20;4.57;;;1.35;;
35128;SDS011;21301;43.626;10.580;2023-04-03T11:03:51;2.95;;;1.02;;
35128;SDS011;21301;43.626;10.580;2023-04-03T11:06:21;5.47;;;1.10;;
35128;SDS011;21301;43.626;10.580;2023-04-03T11:08:51;3.72;;;1.42;;
35128;SDS011;21301;43.626;10.580;2023-04-03T11:11:35;3.13;;;0.90;;
35128;SDS011;21301;43.626;10.580;2023-04-03T11:14:13;2.78;;;1.10;;
35128;SDS011;21301;43.626;10.580;2023-04-03T11:16:48;2.67;;;0.98;;
35128;SDS011;21301;43.626;10.580;2023-04-03T11:19:28;2.90;;;1.00;;
35128;SDS011;21301;43.626;10.580;2023-04-03T11:24:36;1.75;;;0.70;;
35128;SDS011;21301;43.626;10.580;2023-04-03T11:27:08;3.03;;;1.23;;
35128;SDS011;21301;43.626;10.580;2023-04-03T11:29:41;2.25;;;0.82;;
35128;SDS011;21301;43.626;10.580;2023-04-03T11:32:24;3.35;;;0.90;;
35128;SDS011;21301;43.626;10.580;2023-04-03T11:35:02;4.80;;;1.00;;
35128;SDS011;21301;43.626;10.580;2023-04-03T11:37:39;3.22;;;0.70;;
35128;SDS011;21301;43.626;10.580;2023-04-03T11:57:47;3.60;;;1.15;;
35128;SDS011;21301;43.626;10.580;2023-04-03T12:08:28;2.55;;;1.00;;
35128;SDS011;21301;43.626;10.580;2023-04-03T12:19:03;2.47;;;1.00;;
35128;SDS011;21301;43.626;10.580;2023-04-03T12:24:32;2.30;;;0.80;;
35128;SDS011;21301;43.626;10.580;2023-04-03T12:35:10;2.28;;;0.75;;
35128;SDS011;21301;43.626;10.580;2023-04-03T12:40:27;1.95;;;0.70;;
35128;SDS011;21301;43.626;10.580;2023-04-03T12:46:04;3.20;;;0.82;;
35128;SDS011;21301;43.626;10.580;2023-04-03T12:48:56;1.27;;;0.60;;
35128;SDS011;21301;43.626;10.580;2023-04-03T12:51:29;4.18;;;1.10;;
35128;SDS011;21301;43.626;10.580;2023-04-03T12:59:47;1.55;;;0.60;;
35128;SDS011;21301;43.626;10.580;2023-04-03T13:02:23;1.48;;;0.60;;
35128;SDS011;21301;43.626;10.580;2023-04-03T13:04:55;3.63;;;1.17;;
35128;SDS011;21301;43.626;10.580;2023-04-03T13:07:24;2.08;;;0.88;;
35128;SDS011;21301;43.626;10.580;2023-04-03T13:09:59;5.00;;;0.85;;
35128;SDS011;21301;43.626;10.580;2023-04-03T13:12:27;2.33;;;0.80;;
35128;SDS011;21301;43.626;10.580;2023-04-03T13:14:57;4.88;;;1.60;;
35128;SDS011;21301;43.626;10.580;2023-04-03T13:17:25;2.20;;;0.70;;
35128;SDS011;21301;43.626;10.580;2023-04-03T13:19:52;2.10;;;0.60;;
35128;SDS011;21301;43.626;10.580;2023-04-03T13:25:05;2.08;;;0.90;;
35128;SDS011;21301;43.626;10.580;2023-04-03T13:27:33;3.03;;;1.17;;
35128;SDS011;21301;43.626;10.580;2023-04-03T13:30:00;3.60;;;0.90;;
35128;SDS011;21301;43.626;10.580;2023-04-03T13:32:28;2.92;;;0.75;;
35128;SDS011;21301;43.626;10.580;2023-04-03T13:34:56;1.58;;;0.60;;
35128;SDS011;21301;43.626;10.580;2023-04-03T13:37:25;1.98;;;0.73;;
35128;SDS011;21301;43.626;10.580;2023-04-03T13:40:00;2.42;;;0.73;;
35128;SDS011;21301;43.626;10.580;2023-04-03T13:42:35;1.95;;;0.70;;
35128;SDS011;21301;43.626;10.580;2023-04-03T13:45:22;2.22;;;0.75;;
35128;SDS011;21301;43.626;10.580;2023-04-03T13:47:52;2.70;;;0.70;;
35128;SDS011;21301;43.626;10.580;2023-04-03T14:03:21;2.75;;;1.00;;
35128;SDS011;21301;43.626;10.580;2023-04-03T14:05:50;2.72;;;0.82;;
35128;SDS011;21301;43.626;10.580;2023-04-03T14:08:16;1.77;;;0.60;;
35128;SDS011;21301;43.626;10.580;2023-04-03T14:10:43;1.73;;;0.60;;
35128;SDS011;21301;43.626;10.580;2023-04-03T14:13:13;4.75;;;0.70;;
35128;SDS011;21301;43.626;10.580;2023-04-03T14:15:40;2.50;;;0.55;;
35128;SDS011;21301;43.626;10.580;2023-04-03T14:18:10;2.97;;;1.00;;
35128;SDS011;21301;43.626;10.580;2023-04-03T14:20:41;2.28;;;0.77;;
35128;SDS011;21301;43.626;10.580;2023-04-03T14:23:07;1.48;;;0.68;;
35128;SDS011;21301;43.626;10.580;2023-04-03T14:25:34;2.97;;;0.82;;
35128;SDS011;21301;43.626;10.580;2023-04-03T14:28:00;1.05;;;0.52;;
35128;SDS011;21301;43.626;10.580;2023-04-03T14:30:28;1.88;;;0.73;;
35128;SDS011;21301;43.626;10.580;2023-04-03T14:32:57;1.50;;;0.55;;
35128;SDS011;21301;43.626;10.580;2023-04-03T14:35:25;3.38;;;0.50;;
35128;SDS011;21301;43.626;10.580;2023-04-03T14:37:52;0.77;;;0.43;;
35128;SDS011;21301;43.626;10.580;2023-04-03T14:40:20;1.42;;;0.57;;
35128;SDS011;21301;43.626;10.580;2023-04-03T14:42:49;2.35;;;0.65;;
35128;SDS011;21301;43.626;10.580;2023-04-03T14:45:16;1.55;;;0.52;;
35128;SDS011;21301;43.626;10.580;2023-04-03T14:47:47;5.05;;;1.15;;
35128;SDS011;21301;43.626;10.580;2023-04-03T14:50:21;1.70;;;0.60;;
35128;SDS011;21301;43.626;10.580;2023-04-03T14:52:50;2.35;;;0.70;;
35128;SDS011;21301;43.626;10.580;2023-04-03T14:55:18;2.47;;;0.60;;
35128;SDS011;21301;43.626;10.580;2023-04-03T14:57:45;1.63;;;0.52;;
35128;SDS011;21301;43.626;10.580;2023-04-03T15:00:12;1.90;;;0.70;;
35128;SDS011;21301;43.626;10.580;2023-04-03T15:02:40;2.10;;;0.60;;
35128;SDS011;21301;43.626;10.580;2023-04-03T15:05:10;1.70;;;0.75;;
35128;SDS011;21301;43.626;10.580;2023-04-03T15:07:40;2.83;;;0.77;;
35128;SDS011;21301;43.626;10.580;2023-04-03T15:12:40;1.80;;;0.73;;
35128;SDS011;21301;43.626;10.580;2023-04-03T15:15:06;6.43;;;0.75;;
35128;SDS011;21301;43.626;10.580;2023-04-03T15:17:32;1.40;;;0.60;;
35128;SDS011;21301;43.626;10.580;2023-04-03T15:20:00;1.60;;;0.77;;
35128;SDS011;21301;43.626;10.580;2023-04-03T15:22:26;1.17;;;0.50;;
35128;SDS011;21301;43.626;10.580;2023-04-03T15:24:52;3.90;;;1.05;;
35128;SDS011;21301;43.626;10.580;2023-04-03T15:27:18;1.73;;;0.50;;
35128;SDS011;21301;43.626;10.580;2023-04-03T15:29:44;2.67;;;0.85;;
35128;SDS011;21301;43.626;10.580;2023-04-03T15:32:10;2.53;;;0.80;;
35128;SDS011;21301;43.626;10.580;2023-04-03T15:34:37;1.88;;;0.70;;
35128;SDS011;21301;43.626;10.580;2023-04-03T15:37:03;1.17;;;0.50;;
35128;SDS011;21301;43.626;10.580;2023-04-03T15:39:29;2.97;;;0.50;;
35128;SDS011;21301;43.626;10.580;2023-04-03T15:41:55;1.13;;;0.45;;
35128;SDS011;21301;43.626;10.580;2023-04-03T15:44:24;2.22;;;0.73;;
35128;SDS011;21301;43.626;10.580;2023-04-03T15:46:50;2.72;;;0.88;;
35128;SDS011;21301;43.626;10.580;2023-04-03T15:49:17;1.63;;;0.68;;
35128;SDS011;21301;43.626;10.580;2023-04-03T15:51:45;2.50;;;0.73;;
35128;SDS011;21301;43.626;10.580;2023-04-03T15:54:11;3.60;;;0.90;;
35128;SDS011;21301;43.626;10.580;2023-04-03T15:56:36;3.95;;;0.80;;
35128;SDS011;21301;43.626;10.580;2023-04-03T15:59:02;1.60;;;0.77;;
35128;SDS011;21301;43.626;10.580;2023-04-03T16:01:28;1.48;;;0.70;;
35128;SDS011;21301;43.626;10.580;2023-04-03T16:03:54;2.40;;;0.70;;
35128;SDS011;21301;43.626;10.580;2023-04-03T16:06:20;2.55;;;0.82;;
35128;SDS011;21301;43.626;10.580;2023-04-03T16:08:49;3.10;;;0.60;;
35128;SDS011;21301;43.626;10.580;2023-04-03T16:11:15;5.68;;;1.02;;
35128;SDS011;21301;43.626;10.580;2023-04-03T16:13:41;1.10;;;0.60;;
35128;SDS011;21301;43.626;10.580;2023-04-03T16:16:07;2.85;;;0.85;;
35128;SDS011;21301;43.626;10.580;2023-04-03T16:18:34;2.17;;;0.73;;
35128;SDS011;21301;43.626;10.580;2023-04-03T16:21:00;1.70;;;0.30;;
35128;SDS011;21301;43.626;10.580;2023-04-03T16:23:27;2.33;;;0.77;;
35128;SDS011;21301;43.626;10.580;2023-04-03T16:25:53;2.15;;;0.60;;
35128;SDS011;21301;43.626;10.580;2023-04-03T16:28:18;4.38;;;1.23;;
35128;SDS011;21301;43.626;10.580;2023-04-03T16:30:45;4.00;;;0.77;;
35128;SDS011;21301;43.626;10.580;2023-04-03T16:33:12;2.05;;;0.55;;
35128;SDS011;21301;43.626;10.580;2023-04-03T16:35:38;3.08;;;0.70;;
35128;SDS011;21301;43.626;10.580;2023-04-03T16:38:07;2.38;;;1.15;;
35128;SDS011;21301;43.626;10.580;2023-04-03T16:40:33;4.15;;;0.70;;
35128;SDS011;21301;43.626;10.580;2023-04-03T16:43:00;9.93;;;2.00;;
35128;SDS011;21301;43.626;10.580;2023-04-03T16:45:26;3.83;;;0.88;;
35128;SDS011;21301;43.626;10.580;2023-04-03T16:47:52;4.55;;;0.70;;
35128;SDS011;21301;43.626;10.580;2023-04-03T16:50:18;2.65;;;1.20;;
35128;SDS011;21301;43.626;10.580;2023-04-03T16:52:47;4.25;;;1.00;;
35128;SDS011;21301;43.626;10.580;2023-04-03T16:55:13;3.25;;;1.00;;
35128;SDS011;21301;43.626;10.580;2023-04-03T16:57:39;2.17;;;0.70;;
35128;SDS011;21301;43.626;10.580;2023-04-03T17:00:05;3.17;;;1.25;;
35128;SDS011;21301;43.626;10.580;2023-04-03T17:02:32;2.38;;;0.80;;
35128;SDS011;21301;43.626;10.580;2023-04-03T17:04:58;2.75;;;1.05;;
35128;SDS011;21301;43.626;10.580;2023-04-03T17:07:24;3.63;;;1.00;;
35128;SDS011;21301;43.626;10.580;2023-04-03T17:09:50;5.80;;;1.88;;
35128;SDS011;21301;43.626;10.580;2023-04-03T17:12:18;10.18;;;5.28;;
35128;SDS011;21301;43.626;10.580;2023-04-03T17:14:45;7.10;;;3.20;;